sensor_id;sensor_type;location;lat;lon;timestamp;P1;durP1;ratioP1;P2;durP2;ratioP2
17171;SDS011;8701;50.150;8.756;2023-04-24T00:01:47;3.70;;;1.10;;
17171;SDS011;8701;50.150;8.756;2023-04-24T00:05:50;4.43;;;1.10;;
17171;SDS011;8701;50.150;8.756;2023-04-24T00:09:53;5.03;;;1.10;;
17171;SDS011;8701;50.150;8.756;2023-04-24T00:13:55;6.43;;;1.80;;
17171;SDS011;8701;50.150;8.756;2023-04-24T00:17:58;4.10;;;1.40;;
17171;SDS011;8701;50.150;8.756;2023-04-24T00:22:03;3.67;;;1.30;;
17171;SDS011;8701;50.150;8.756;2023-04-24T00:26:05;3.80;;;1.30;;
17171;SDS011;8701;50.150;8.756;2023-04-24T00:30:08;4.00;;;1.20;;
17171;SDS011;8701;50.150;8.756;2023-04-24T00:34:10;5.03;;;1.27;;
17171;SDS011;8701;50.150;8.756;2023-04-24T00:38:14;4.03;;;1.30;;
17171;SDS011;8701;50.150;8.756;2023-04-24T00:42:16;4.50;;;1.10;;
17171;SDS011;8701;50.150;8.756;2023-04-24T00:46:19;5.13;;;1.50;;
17171;SDS011;8701;50.150;8.756;2023-04-24T00:50:21;3.53;;;1.20;;
17171;SDS011;8701;50.150;8.756;2023-04-24T00:54:27;8.70;;;1.60;;
17171;SDS011;8701;50.150;8.756;2023-04-24T00:58:29;5.37;;;1.40;;
17171;SDS011;8701;50.150;8.756;2023-04-24T01:02:32;5.40;;;1.10;;
17171;SDS011;8701;50.150;8.756;2023-04-24T01:06:35;10.80;;;1.10;;
17171;SDS011;8701;50.150;8.756;2023-04-24T01:10:41;4.27;;;1.23;;
17171;SDS011;8701;50.150;8.756;2023-04-24T01:14:46;4.97;;;1.00;;
17171;SDS011;8701;50.150;8.756;2023-04-24T01:18:50;5.63;;;1.40;;
17171;SDS011;8701;50.150;8.756;2023-04-24T01:22:55;5.40;;;1.13;;
17171;SDS011;8701;50.150;8.756;2023-04-24T01:26:57;6.97;;;1.23;;
17171;SDS011;8701;50.150;8.756;2023-04-24T01:31:01;4.13;;;1.10;;
17171;SDS011;8701;50.150;8.756;2023-04-24T01:35:04;5.03;;;1.03;;
17171;SDS011;8701;50.150;8.756;2023-04-24T01:39:09;5.77;;;1.37;;
17171;SDS011;8701;50.150;8.756;2023-04-24T01:43:11;5.10;;;1.30;;
17171;SDS011;8701;50.150;8.756;2023-04-24T01:47:16;4.60;;;1.17;;
17171;SDS011;8701;50.150;8.756;2023-04-24T01:51:19;5.50;;;1.27;;
17171;SDS011;8701;50.150;8.756;2023-04-24T01:55:22;4.20;;;1.20;;
17171;SDS011;8701;50.150;8.756;2023-04-24T01:59:24;6.50;;;1.20;;
17171;SDS011;8701;50.150;8.756;2023-04-24T02:03:28;4.90;;;1.10;;
17171;SDS011;8701;50.150;8.756;2023-04-24T02:07:33;4.00;;;1.03;;
17171;SDS011;8701;50.150;8.756;2023-04-24T02:11:36;5.13;;;1.30;;
17171;SDS011;8701;50.150;8.756;2023-04-24T02:15:38;3.87;;;1.03;;
17171;SDS011;8701;50.150;8.756;2023-04-24T02:19:41;4.90;;;1.43;;
17171;SDS011;8701;50.150;8.756;2023-04-24T02:23:44;4.70;;;1.10;;
17171;SDS011;8701;50.150;8.756;2023-04-24T02:27:48;5.30;;;1.10;;
17171;SDS011;8701;50.150;8.756;2023-04-24T02:31:50;4.67;;;1.20;;
17171;SDS011;8701;50.150;8.756;2023-04-24T02:35:53;6.10;;;1.30;;
17171;SDS011;8701;50.150;8.756;2023-04-24T02:39:55;6.80;;;1.20;;
17171;SDS011;8701;50.150;8.756;2023-04-24T02:43:58;3.80;;;1.20;;
17171;SDS011;8701;50.150;8.756;2023-04-24T02:48:01;4.63;;;1.13;;
17171;SDS011;8701;50.150;8.756;2023-04-24T02:52:03;4.23;;;1.10;;
17171;SDS011;8701;50.150;8.756;2023-04-24T02:56:06;8.63;;;1.40;;
17171;SDS011;8701;50.150;8.756;2023-04-24T03:00:10;6.07;;;1.20;;
17171;SDS011;8701;50.150;8.756;2023-04-24T03:04:13;4.37;;;1.23;;
17171;SDS011;8701;50.150;8.756;2023-04-24T03:08:16;4.40;;;1.40;;
17171;SDS011;8701;50.150;8.756;2023-04-24T03:12:18;4.97;;;1.30;;
17171;SDS011;8701;50.150;8.756;2023-04-24T03:16:22;4.70;;;1.17;;
17171;SDS011;8701;50.150;8.756;2023-04-24T03:20:24;4.27;;;1.20;;
17171;SDS011;8701;50.150;8.756;2023-04-24T03:24:28;7.53;;;1.30;;
17171;SDS011;8701;50.150;8.756;2023-04-24T03:28:31;4.80;;;1.10;;
17171;SDS011;8701;50.150;8.756;2023-04-24T03:32:38;3.27;;;1.00;;
17171;SDS011;8701;50.150;8.756;2023-04-24T03:36:43;3.97;;;1.00;;
17171;SDS011;8701;50.150;8.756;2023-04-24T03:40:48;3.90;;;1.20;;
17171;SDS011;8701;50.150;8.756;2023-04-24T03:45:08;5.97;;;1.47;;
17171;SDS011;8701;50.150;8.756;2023-04-24T03:49:15;4.40;;;1.33;;
17171;SDS011;8701;50.150;8.756;2023-04-24T03:53:19;6.40;;;1.20;;
17171;SDS011;8701;50.150;8.756;2023-04-24T03:57:23;4.47;;;1.10;;
17171;SDS011;8701;50.150;8.756;2023-04-24T04:01:37;5.27;;;1.20;;
17171;SDS011;8701;50.150;8.756;2023-04-24T04:05:47;5.17;;;1.20;;
17171;SDS011;8701;50.150;8.756;2023-04-24T04:09:49;5.17;;;1.30;;
17171;SDS011;8701;50.150;8.756;2023-04-24T04:13:52;8.90;;;1.87;;
17171;SDS011;8701;50.150;8.756;2023-04-24T04:17:56;4.30;;;1.40;;
17171;SDS011;8701;50.150;8.756;2023-04-24T04:22:00;5.40;;;1.10;;
17171;SDS011;8701;50.150;8.756;2023-04-24T04:26:11;4.90;;;1.27;;
17171;SDS011;8701;50.150;8.756;2023-04-24T04:30:27;4.17;;;1.27;;
17171;SDS011;8701;50.150;8.756;2023-04-24T04:34:36;5.00;;;1.37;;
17171;SDS011;8701;50.150;8.756;2023-04-24T04:38:42;4.53;;;1.60;;
17171;SDS011;8701;50.150;8.756;2023-04-24T04:43:07;3.60;;;1.20;;
17171;SDS011;8701;50.150;8.756;2023-04-24T04:47:17;4.10;;;1.17;;
17171;SDS011;8701;50.150;8.756;2023-04-24T04:51:22;8.30;;;2.40;;
17171;SDS011;8701;50.150;8.756;2023-04-24T04:55:26;4.37;;;1.57;;
17171;SDS011;8701;50.150;8.756;2023-04-24T04:59:45;3.90;;;1.20;;
17171;SDS011;8701;50.150;8.756;2023-04-24T05:03:57;4.10;;;1.33;;
17171;SDS011;8701;50.150;8.756;2023-04-24T05:07:59;4.13;;;1.40;;
17171;SDS011;8701;50.150;8.756;2023-04-24T05:12:03;4.40;;;1.80;;
17171;SDS011;8701;50.150;8.756;2023-04-24T05:16:10;3.90;;;1.30;;
17171;SDS011;8701;50.150;8.756;2023-04-24T05:20:13;5.93;;;1.47;;
17171;SDS011;8701;50.150;8.756;2023-04-24T05:24:15;4.90;;;1.63;;
17171;SDS011;8701;50.150;8.756;2023-04-24T05:28:35;5.97;;;1.50;;
17171;SDS011;8701;50.150;8.756;2023-04-24T05:32:42;4.00;;;1.70;;
17171;SDS011;8701;50.150;8.756;2023-04-24T05:36:45;5.83;;;1.73;;
17171;SDS011;8701;50.150;8.756;2023-04-24T05:40:48;5.10;;;1.90;;
17171;SDS011;8701;50.150;8.756;2023-04-24T05:44:52;6.70;;;1.63;;
17171;SDS011;8701;50.150;8.756;2023-04-24T05:48:55;4.80;;;1.70;;
17171;SDS011;8701;50.150;8.756;2023-04-24T05:52:57;4.30;;;2.00;;
17171;SDS011;8701;50.150;8.756;2023-04-24T05:57:04;7.03;;;2.13;;
17171;SDS011;8701;50.150;8.756;2023-04-24T06:01:23;4.90;;;2.00;;
17171;SDS011;8701;50.150;8.756;2023-04-24T06:05:35;5.07;;;2.17;;
17171;SDS011;8701;50.150;8.756;2023-04-24T06:09:38;5.30;;;1.93;;
17171;SDS011;8701;50.150;8.756;2023-04-24T06:13:41;7.83;;;2.03;;
17171;SDS011;8701;50.150;8.756;2023-04-24T06:18:04;4.97;;;2.03;;
17171;SDS011;8701;50.150;8.756;2023-04-24T06:22:07;5.23;;;1.73;;
17171;SDS011;8701;50.150;8.756;2023-04-24T06:26:09;5.83;;;2.10;;
17171;SDS011;8701;50.150;8.756;2023-04-24T06:30:13;5.80;;;2.20;;
17171;SDS011;8701;50.150;8.756;2023-04-24T06:34:16;5.80;;;2.20;;
17171;SDS011;8701;50.150;8.756;2023-04-24T06:38:18;5.70;;;2.17;;
17171;SDS011;8701;50.150;8.756;2023-04-24T06:42:21;8.37;;;2.47;;
17171;SDS011;8701;50.150;8.756;2023-04-24T06:46:25;5.50;;;2.20;;
17171;SDS011;8701;50.150;8.756;2023-04-24T06:50:29;5.13;;;2.33;;
17171;SDS011;8701;50.150;8.756;2023-04-24T06:54:31;5.43;;;2.50;;
17171;SDS011;8701;50.150;8.756;2023-04-24T06:58:34;6.53;;;2.50;;
17171;SDS011;8701;50.150;8.756;2023-04-24T07:02:36;13.00;;;3.23;;
17171;SDS011;8701;50.150;8.756;2023-04-24T07:06:40;7.87;;;2.87;;
17171;SDS011;8701;50.150;8.756;2023-04-24T07:10:42;6.17;;;2.47;;
17171;SDS011;8701;50.150;8.756;2023-04-24T07:14:44;5.50;;;2.10;;
17171;SDS011;8701;50.150;8.756;2023-04-24T07:18:46;5.63;;;2.30;;
17171;SDS011;8701;50.150;8.756;2023-04-24T07:22:50;6.73;;;2.10;;
17171;SDS011;8701;50.150;8.756;2023-04-24T07:26:54;4.50;;;2.13;;
17171;SDS011;8701;50.150;8.756;2023-04-24T07:30:57;6.10;;;2.63;;
17171;SDS011;8701;50.150;8.756;2023-04-24T07:35:00;10.73;;;2.43;;
17171;SDS011;8701;50.150;8.756;2023-04-24T07:39:03;6.60;;;2.97;;
17171;SDS011;8701;50.150;8.756;2023-04-24T07:43:06;5.40;;;2.73;;
17171;SDS011;8701;50.150;8.756;2023-04-24T07:47:08;7.40;;;2.50;;
17171;SDS011;8701;50.150;8.756;2023-04-24T07:51:11;6.00;;;2.23;;
17171;SDS011;8701;50.150;8.756;2023-04-24T07:55:15;6.30;;;2.13;;
17171;SDS011;8701;50.150;8.756;2023-04-24T07:59:17;4.70;;;2.03;;
17171;SDS011;8701;50.150;8.756;2023-04-24T08:03:19;5.23;;;2.33;;
17171;SDS011;8701;50.150;8.756;2023-04-24T08:07:22;4.67;;;2.30;;
17171;SDS011;8701;50.150;8.756;2023-04-24T08:11:26;5.10;;;2.10;;
17171;SDS011;8701;50.150;8.756;2023-04-24T08:15:29;5.50;;;2.50;;
17171;SDS011;8701;50.150;8.756;2023-04-24T08:19:31;7.40;;;2.50;;
17171;SDS011;8701;50.150;8.756;2023-04-24T08:23:33;6.00;;;2.47;;
17171;SDS011;8701;50.150;8.756;2023-04-24T08:27:36;5.20;;;2.17;;
17171;SDS011;8701;50.150;8.756;2023-04-24T08:31:39;5.10;;;2.27;;
17171;SDS011;8701;50.150;8.756;2023-04-24T08:35:41;5.90;;;2.47;;
17171;SDS011;8701;50.150;8.756;2023-04-24T08:39:44;5.03;;;2.10;;
17171;SDS011;8701;50.150;8.756;2023-04-24T08:43:47;5.07;;;1.90;;
17171;SDS011;8701;50.150;8.756;2023-04-24T08:47:50;5.03;;;2.13;;
17171;SDS011;8701;50.150;8.756;2023-04-24T08:51:53;5.77;;;2.33;;
17171;SDS011;8701;50.150;8.756;2023-04-24T08:55:56;5.10;;;2.20;;
17171;SDS011;8701;50.150;8.756;2023-04-24T09:00:00;5.63;;;2.00;;
17171;SDS011;8701;50.150;8.756;2023-04-24T09:04:03;7.37;;;2.60;;
17171;SDS011;8701;50.150;8.756;2023-04-24T09:08:05;4.23;;;1.90;;
17171;SDS011;8701;50.150;8.756;2023-04-24T09:12:11;4.30;;;2.20;;
17171;SDS011;8701;50.150;8.756;2023-04-24T09:16:15;5.50;;;2.00;;
17171;SDS011;8701;50.150;8.756;2023-04-24T09:20:17;4.90;;;1.97;;
17171;SDS011;8701;50.150;8.756;2023-04-24T09:24:21;7.30;;;2.10;;
17171;SDS011;8701;50.150;8.756;2023-04-24T09:28:28;4.83;;;2.13;;
17171;SDS011;8701;50.150;8.756;2023-04-24T09:32:33;4.37;;;2.10;;
17171;SDS011;8701;50.150;8.756;2023-04-24T09:36:36;8.13;;;2.10;;
17171;SDS011;8701;50.150;8.756;2023-04-24T09:40:39;5.17;;;2.03;;
17171;SDS011;8701;50.150;8.756;2023-04-24T09:44:42;7.40;;;2.10;;
17171;SDS011;8701;50.150;8.756;2023-04-24T09:48:46;5.50;;;2.00;;
17171;SDS011;8701;50.150;8.756;2023-04-24T09:52:55;4.93;;;2.27;;
17171;SDS011;8701;50.150;8.756;2023-04-24T09:56:59;4.20;;;1.97;;
17171;SDS011;8701;50.150;8.756;2023-04-24T10:01:01;4.87;;;2.17;;
17171;SDS011;8701;50.150;8.756;2023-04-24T10:05:06;5.20;;;2.10;;
17171;SDS011;8701;50.150;8.756;2023-04-24T10:09:12;4.40;;;1.97;;
17171;SDS011;8701;50.150;8.756;2023-04-24T10:13:15;5.80;;;2.43;;
17171;SDS011;8701;50.150;8.756;2023-04-24T10:17:17;4.43;;;1.80;;
17171;SDS011;8701;50.150;8.756;2023-04-24T10:21:23;6.03;;;1.87;;
17171;SDS011;8701;50.150;8.756;2023-04-24T10:25:25;8.53;;;1.80;;
17171;SDS011;8701;50.150;8.756;2023-04-24T10:29:29;5.13;;;1.60;;
17171;SDS011;8701;50.150;8.756;2023-04-24T10:33:35;4.10;;;1.50;;
17171;SDS011;8701;50.150;8.756;2023-04-24T10:37:40;4.27;;;1.67;;
17171;SDS011;8701;50.150;8.756;2023-04-24T10:41:45;4.83;;;1.90;;
17171;SDS011;8701;50.150;8.756;2023-04-24T10:46:00;6.70;;;1.97;;
17171;SDS011;8701;50.150;8.756;2023-04-24T10:50:04;6.63;;;2.20;;
17171;SDS011;8701;50.150;8.756;2023-04-24T10:54:22;5.10;;;2.27;;
17171;SDS011;8701;50.150;8.756;2023-04-24T10:58:35;4.97;;;2.40;;
17171;SDS011;8701;50.150;8.756;2023-04-24T11:02:39;5.70;;;2.30;;
17171;SDS011;8701;50.150;8.756;2023-04-24T11:06:48;4.70;;;2.00;;
17171;SDS011;8701;50.150;8.756;2023-04-24T11:10:56;4.43;;;1.97;;
17171;SDS011;8701;50.150;8.756;2023-04-24T11:15:00;7.30;;;2.10;;
17171;SDS011;8701;50.150;8.756;2023-04-24T11:19:04;5.77;;;2.10;;
17171;SDS011;8701;50.150;8.756;2023-04-24T11:23:07;6.87;;;1.70;;
17171;SDS011;8701;50.150;8.756;2023-04-24T11:27:13;8.00;;;1.50;;
17171;SDS011;8701;50.150;8.756;2023-04-24T11:31:36;5.30;;;1.80;;
17171;SDS011;8701;50.150;8.756;2023-04-24T11:35:39;5.60;;;1.40;;
17171;SDS011;8701;50.150;8.756;2023-04-24T11:39:42;3.70;;;1.37;;
17171;SDS011;8701;50.150;8.756;2023-04-24T11:43:46;4.37;;;1.70;;
17171;SDS011;8701;50.150;8.756;2023-04-24T11:47:49;5.77;;;1.57;;
17171;SDS011;8701;50.150;8.756;2023-04-24T11:51:54;4.10;;;1.40;;
17171;SDS011;8701;50.150;8.756;2023-04-24T11:55:57;3.60;;;1.40;;
17171;SDS011;8701;50.150;8.756;2023-04-24T12:00:06;3.40;;;1.30;;
17171;SDS011;8701;50.150;8.756;2023-04-24T12:04:13;6.40;;;1.50;;
17171;SDS011;8701;50.150;8.756;2023-04-24T12:08:26;4.10;;;1.67;;
17171;SDS011;8701;50.150;8.756;2023-04-24T12:12:29;9.23;;;2.37;;
17171;SDS011;8701;50.150;8.756;2023-04-24T12:16:33;4.43;;;1.70;;
17171;SDS011;8701;50.150;8.756;2023-04-24T12:20:35;4.40;;;1.70;;
17171;SDS011;8701;50.150;8.756;2023-04-24T12:29:02;3.90;;;1.50;;
17171;SDS011;8701;50.150;8.756;2023-04-24T12:33:06;4.27;;;2.00;;
17171;SDS011;8701;50.150;8.756;2023-04-24T12:37:09;5.87;;;2.00;;
17171;SDS011;8701;50.150;8.756;2023-04-24T12:41:13;3.63;;;1.23;;
17171;SDS011;8701;50.150;8.756;2023-04-24T12:45:15;5.17;;;1.63;;
17171;SDS011;8701;50.150;8.756;2023-04-24T12:49:20;4.63;;;1.90;;
17171;SDS011;8701;50.150;8.756;2023-04-24T12:53:22;5.80;;;2.50;;
17171;SDS011;8701;50.150;8.756;2023-04-24T12:57:27;5.93;;;2.30;;
17171;SDS011;8701;50.150;8.756;2023-04-24T13:01:30;6.10;;;1.93;;
17171;SDS011;8701;50.150;8.756;2023-04-24T13:05:34;7.50;;;2.20;;
17171;SDS011;8701;50.150;8.756;2023-04-24T13:09:36;5.93;;;2.40;;
17171;SDS011;8701;50.150;8.756;2023-04-24T13:13:38;4.40;;;2.20;;
17171;SDS011;8701;50.150;8.756;2023-04-24T13:17:41;5.80;;;2.50;;
17171;SDS011;8701;50.150;8.756;2023-04-24T13:21:44;6.40;;;2.70;;
17171;SDS011;8701;50.150;8.756;2023-04-24T13:25:47;5.27;;;2.50;;
17171;SDS011;8701;50.150;8.756;2023-04-24T13:29:49;5.93;;;2.60;;
17171;SDS011;8701;50.150;8.756;2023-04-24T13:33:52;5.97;;;2.83;;
17171;SDS011;8701;50.150;8.756;2023-04-24T13:37:55;7.07;;;3.53;;
17171;SDS011;8701;50.150;8.756;2023-04-24T13:41:57;6.27;;;3.00;;
17171;SDS011;8701;50.150;8.756;2023-04-24T13:46:00;8.83;;;2.37;;
17171;SDS011;8701;50.150;8.756;2023-04-24T13:50:03;6.30;;;2.70;;
17171;SDS011;8701;50.150;8.756;2023-04-24T13:54:08;6.23;;;2.90;;
17171;SDS011;8701;50.150;8.756;2023-04-24T13:58:10;7.57;;;2.80;;
17171;SDS011;8701;50.150;8.756;2023-04-24T14:02:12;6.30;;;2.93;;
17171;SDS011;8701;50.150;8.756;2023-04-24T14:06:15;7.90;;;3.27;;
17171;SDS011;8701;50.150;8.756;2023-04-24T14:10:18;7.77;;;3.60;;
17171;SDS011;8701;50.150;8.756;2023-04-24T14:14:21;8.50;;;2.93;;
17171;SDS011;8701;50.150;8.756;2023-04-24T14:18:23;6.10;;;2.83;;
17171;SDS011;8701;50.150;8.756;2023-04-24T14:22:25;8.73;;;2.93;;
17171;SDS011;8701;50.150;8.756;2023-04-24T14:26:29;6.50;;;2.70;;
17171;SDS011;8701;50.150;8.756;2023-04-24T14:30:31;7.53;;;3.00;;
17171;SDS011;8701;50.150;8.756;2023-04-24T14:34:33;6.50;;;2.43;;
17171;SDS011;8701;50.150;8.756;2023-04-24T14:38:35;5.07;;;2.70;;
17171;SDS011;8701;50.150;8.756;2023-04-24T14:42:39;5.70;;;2.87;;
17171;SDS011;8701;50.150;8.756;2023-04-24T14:46:42;5.53;;;2.70;;
17171;SDS011;8701;50.150;8.756;2023-04-24T14:50:44;6.90;;;2.67;;
17171;SDS011;8701;50.150;8.756;2023-04-24T14:54:46;7.13;;;3.00;;
17171;SDS011;8701;50.150;8.756;2023-04-24T14:58:50;5.23;;;2.40;;
17171;SDS011;8701;50.150;8.756;2023-04-24T15:02:52;5.10;;;2.70;;
17171;SDS011;8701;50.150;8.756;2023-04-24T15:06:55;6.07;;;2.57;;
17171;SDS011;8701;50.150;8.756;2023-04-24T15:10:57;6.83;;;2.40;;
17171;SDS011;8701;50.150;8.756;2023-04-24T15:15:01;8.23;;;3.03;;
17171;SDS011;8701;50.150;8.756;2023-04-24T15:19:03;6.67;;;2.53;;
17171;SDS011;8701;50.150;8.756;2023-04-24T15:23:07;5.20;;;2.77;;
17171;SDS011;8701;50.150;8.756;2023-04-24T15:27:09;6.90;;;2.40;;
17171;SDS011;8701;50.150;8.756;2023-04-24T15:31:13;8.20;;;3.00;;
17171;SDS011;8701;50.150;8.756;2023-04-24T15:35:16;10.13;;;2.70;;
17171;SDS011;8701;50.150;8.756;2023-04-24T15:39:19;6.00;;;2.80;;
17171;SDS011;8701;50.150;8.756;2023-04-24T15:43:24;6.20;;;2.80;;
17171;SDS011;8701;50.150;8.756;2023-04-24T15:47:27;6.00;;;2.60;;
17171;SDS011;8701;50.150;8.756;2023-04-24T15:51:30;7.90;;;2.87;;
17171;SDS011;8701;50.150;8.756;2023-04-24T15:55:32;7.00;;;2.73;;
17171;SDS011;8701;50.150;8.756;2023-04-24T15:59:34;6.57;;;2.40;;
17171;SDS011;8701;50.150;8.756;2023-04-24T16:03:38;8.37;;;2.17;;
17171;SDS011;8701;50.150;8.756;2023-04-24T16:07:40;4.80;;;2.40;;
17171;SDS011;8701;50.150;8.756;2023-04-24T16:11:42;5.50;;;2.73;;
17171;SDS011;8701;50.150;8.756;2023-04-24T16:15:45;6.13;;;3.03;;
17171;SDS011;8701;50.150;8.756;2023-04-24T16:19:49;10.57;;;2.30;;
17171;SDS011;8701;50.150;8.756;2023-04-24T16:23:51;5.83;;;2.50;;
17171;SDS011;8701;50.150;8.756;2023-04-24T16:27:53;7.80;;;2.63;;
17171;SDS011;8701;50.150;8.756;2023-04-24T16:31:56;6.40;;;2.70;;
17171;SDS011;8701;50.150;8.756;2023-04-24T16:35:59;6.77;;;2.50;;
17171;SDS011;8701;50.150;8.756;2023-04-24T16:40:02;5.30;;;2.20;;
17171;SDS011;8701;50.150;8.756;2023-04-24T16:44:10;7.33;;;2.70;;
17171;SDS011;8701;50.150;8.756;2023-04-24T16:48:13;10.07;;;2.40;;
17171;SDS011;8701;50.150;8.756;2023-04-24T16:52:16;5.70;;;2.73;;
17171;SDS011;8701;50.150;8.756;2023-04-24T16:56:19;7.60;;;2.70;;
17171;SDS011;8701;50.150;8.756;2023-04-24T17:00:21;8.30;;;2.73;;
17171;SDS011;8701;50.150;8.756;2023-04-24T17:04:23;6.37;;;2.57;;
17171;SDS011;8701;50.150;8.756;2023-04-24T17:08:27;8.20;;;2.97;;
17171;SDS011;8701;50.150;8.756;2023-04-24T17:12:30;6.70;;;3.10;;
17171;SDS011;8701;50.150;8.756;2023-04-24T17:16:32;4.60;;;2.30;;
17171;SDS011;8701;50.150;8.756;2023-04-24T17:20:34;5.63;;;2.87;;
17171;SDS011;8701;50.150;8.756;2023-04-24T17:24:38;9.03;;;2.60;;
17171;SDS011;8701;50.150;8.756;2023-04-24T17:28:40;8.17;;;2.70;;
17171;SDS011;8701;50.150;8.756;2023-04-24T17:32:42;7.37;;;2.73;;
17171;SDS011;8701;50.150;8.756;2023-04-24T17:36:44;5.63;;;2.40;;
17171;SDS011;8701;50.150;8.756;2023-04-24T17:40:48;6.67;;;2.77;;
17171;SDS011;8701;50.150;8.756;2023-04-24T17:44:52;5.67;;;2.90;;
17171;SDS011;8701;50.150;8.756;2023-04-24T17:48:54;6.20;;;2.40;;
17171;SDS011;8701;50.150;8.756;2023-04-24T17:52:56;4.63;;;2.30;;
17171;SDS011;8701;50.150;8.756;2023-04-24T17:57:00;7.43;;;2.53;;
17171;SDS011;8701;50.150;8.756;2023-04-24T18:01:02;17.10;;;2.60;;
17171;SDS011;8701;50.150;8.756;2023-04-24T18:05:04;12.83;;;2.57;;
17171;SDS011;8701;50.150;8.756;2023-04-24T18:09:07;6.77;;;2.73;;
17171;SDS011;8701;50.150;8.756;2023-04-24T18:13:10;6.50;;;2.70;;
17171;SDS011;8701;50.150;8.756;2023-04-24T18:17:12;9.20;;;3.80;;
17171;SDS011;8701;50.150;8.756;2023-04-24T18:21:15;9.70;;;3.10;;
17171;SDS011;8701;50.150;8.756;2023-04-24T18:25:17;5.87;;;3.17;;
17171;SDS011;8701;50.150;8.756;2023-04-24T18:29:27;6.30;;;2.80;;
17171;SDS011;8701;50.150;8.756;2023-04-24T18:33:29;8.77;;;2.83;;
17171;SDS011;8701;50.150;8.756;2023-04-24T18:37:31;7.13;;;3.20;;
17171;SDS011;8701;50.150;8.756;2023-04-24T18:41:34;6.10;;;2.47;;
17171;SDS011;8701;50.150;8.756;2023-04-24T18:45:37;5.40;;;2.40;;
17171;SDS011;8701;50.150;8.756;2023-04-24T18:49:39;5.63;;;2.77;;
17171;SDS011;8701;50.150;8.756;2023-04-24T18:53:42;6.83;;;3.20;;
17171;SDS011;8701;50.150;8.756;2023-04-24T18:57:44;6.07;;;2.97;;
17171;SDS011;8701;50.150;8.756;2023-04-24T19:01:47;6.50;;;2.83;;
17171;SDS011;8701;50.150;8.756;2023-04-24T19:05:50;7.50;;;3.60;;
17171;SDS011;8701;50.150;8.756;2023-04-24T19:09:52;7.60;;;3.67;;
17171;SDS011;8701;50.150;8.756;2023-04-24T19:13:54;7.80;;;3.20;;
17171;SDS011;8701;50.150;8.756;2023-04-24T19:17:59;6.57;;;3.60;;
17171;SDS011;8701;50.150;8.756;2023-04-24T19:22:02;7.33;;;3.80;;
17171;SDS011;8701;50.150;8.756;2023-04-24T19:26:04;7.57;;;3.40;;
17171;SDS011;8701;50.150;8.756;2023-04-24T19:30:07;8.77;;;3.97;;
17171;SDS011;8701;50.150;8.756;2023-04-24T19:34:11;7.23;;;3.30;;
17171;SDS011;8701;50.150;8.756;2023-04-24T19:38:14;6.50;;;2.67;;
17171;SDS011;8701;50.150;8.756;2023-04-24T19:42:16;8.03;;;3.33;;
17171;SDS011;8701;50.150;8.756;2023-04-24T19:46:18;5.27;;;2.17;;
17171;SDS011;8701;50.150;8.756;2023-04-24T19:50:22;5.60;;;2.67;;
17171;SDS011;8701;50.150;8.756;2023-04-24T19:54:24;9.03;;;2.73;;
17171;SDS011;8701;50.150;8.756;2023-04-24T19:58:26;9.50;;;5.37;;
17171;SDS011;8701;50.150;8.756;2023-04-24T20:02:30;5.93;;;2.70;;
17171;SDS011;8701;50.150;8.756;2023-04-24T20:06:34;8.07;;;3.23;;
17171;SDS011;8701;50.150;8.756;2023-04-24T20:10:36;6.90;;;3.03;;
17171;SDS011;8701;50.150;8.756;2023-04-24T20:14:38;8.70;;;4.40;;
17171;SDS011;8701;50.150;8.756;2023-04-24T20:18:41;8.40;;;2.93;;
17171;SDS011;8701;50.150;8.756;2023-04-24T20:22:45;6.03;;;2.83;;
17171;SDS011;8701;50.150;8.756;2023-04-24T20:26:47;5.77;;;2.80;;
17171;SDS011;8701;50.150;8.756;2023-04-24T20:30:50;10.07;;;3.33;;
17171;SDS011;8701;50.150;8.756;2023-04-24T20:34:52;6.90;;;3.20;;
17171;SDS011;8701;50.150;8.756;2023-04-24T20:38:56;5.63;;;3.00;;
17171;SDS011;8701;50.150;8.756;2023-04-24T20:42:59;9.80;;;4.80;;
17171;SDS011;8701;50.150;8.756;2023-04-24T20:47:04;7.57;;;3.20;;
17171;SDS011;8701;50.150;8.756;2023-04-24T20:51:06;6.40;;;3.40;;
17171;SDS011;8701;50.150;8.756;2023-04-24T20:55:10;7.77;;;3.33;;
17171;SDS011;8701;50.150;8.756;2023-04-24T20:59:12;8.60;;;3.83;;
17171;SDS011;8701;50.150;8.756;2023-04-24T21:03:14;6.80;;;3.60;;
17171;SDS011;8701;50.150;8.756;2023-04-24T21:07:17;8.43;;;3.47;;
17171;SDS011;8701;50.150;8.756;2023-04-24T21:11:20;8.47;;;3.53;;
17171;SDS011;8701;50.150;8.756;2023-04-24T21:15:22;6.33;;;3.30;;
17171;SDS011;8701;50.150;8.756;2023-04-24T21:19:25;9.63;;;5.73;;
17171;SDS011;8701;50.150;8.756;2023-04-24T21:23:27;8.80;;;4.87;;
17171;SDS011;8701;50.150;8.756;2023-04-24T21:27:30;10.60;;;4.90;;
17171;SDS011;8701;50.150;8.756;2023-04-24T21:31:33;8.03;;;4.10;;
17171;SDS011;8701;50.150;8.756;2023-04-24T21:35:35;11.00;;;5.47;;
17171;SDS011;8701;50.150;8.756;2023-04-24T21:39:37;7.97;;;4.43;;
17171;SDS011;8701;50.150;8.756;2023-04-24T21:43:42;8.73;;;4.17;;
17171;SDS011;8701;50.150;8.756;2023-04-24T21:47:45;6.97;;;3.70;;
17171;SDS011;8701;50.150;8.756;2023-04-24T21:51:47;7.30;;;4.00;;
17171;SDS011;8701;50.150;8.756;2023-04-24T21:55:49;8.50;;;4.33;;
17171;SDS011;8701;50.150;8.756;2023-04-24T21:59:52;8.70;;;5.17;;
17171;SDS011;8701;50.150;8.756;2023-04-24T22:03:55;10.50;;;5.00;;
17171;SDS011;8701;50.150;8.756;2023-04-24T22:07:57;9.20;;;5.50;;
17171;SDS011;8701;50.150;8.756;2023-04-24T22:11:59;8.47;;;4.60;;
17171;SDS011;8701;50.150;8.756;2023-04-24T22:16:03;9.67;;;4.20;;
17171;SDS011;8701;50.150;8.756;2023-04-24T22:20:06;8.53;;;4.53;;
17171;SDS011;8701;50.150;8.756;2023-04-24T22:24:08;6.93;;;4.00;;
17171;SDS011;8701;50.150;8.756;2023-04-24T22:28:11;8.20;;;4.27;;
17171;SDS011;8701;50.150;8.756;2023-04-24T22:32:14;8.20;;;4.70;;
17171;SDS011;8701;50.150;8.756;2023-04-24T22:36:17;7.90;;;4.60;;
17171;SDS011;8701;50.150;8.756;2023-04-24T22:40:19;9.83;;;5.60;;
17171;SDS011;8701;50.150;8.756;2023-04-24T22:44:21;11.10;;;5.30;;
17171;SDS011;8701;50.150;8.756;2023-04-24T22:48:25;10.37;;;5.57;;
17171;SDS011;8701;50.150;8.756;2023-04-24T22:52:27;8.83;;;5.27;;
17171;SDS011;8701;50.150;8.756;2023-04-24T22:56:29;10.57;;;5.50;;
17171;SDS011;8701;50.150;8.756;2023-04-24T23:00:32;14.47;;;6.33;;
17171;SDS011;8701;50.150;8.756;2023-04-24T23:04:35;10.33;;;6.27;;
17171;SDS011;8701;50.150;8.756;2023-04-24T23:08:37;13.43;;;6.00;;
17171;SDS011;8701;50.150;8.756;2023-04-24T23:12:40;9.93;;;5.90;;
17171;SDS011;8701;50.150;8.756;2023-04-24T23:16:43;11.27;;;6.40;;
17171;SDS011;8701;50.150;8.756;2023-04-24T23:20:47;11.17;;;6.03;;
17171;SDS011;8701;50.150;8.756;2023-04-24T23:24:49;15.40;;;6.40;;
17171;SDS011;8701;50.150;8.756;2023-04-24T23:28:51;11.47;;;6.37;;
17171;SDS011;8701;50.150;8.756;2023-04-24T23:32:53;10.17;;;6.07;;
17171;SDS011;8701;50.150;8.756;2023-04-24T23:36:57;11.13;;;5.70;;
17171;SDS011;8701;50.150;8.756;2023-04-24T23:40:59;11.83;;;5.70;;
17171;SDS011;8701;50.150;8.756;2023-04-24T23:45:01;9.93;;;6.33;;
17171;SDS011;8701;50.150;8.756;2023-04-24T23:49:04;10.57;;;5.77;;
17171;SDS011;8701;50.150;8.756;2023-04-24T23:53:08;11.33;;;6.80;;
17171;SDS011;8701;50.150;8.756;2023-04-24T23:57:10;13.33;;;6.70;;
